Time;durP1;ratioP1;P1;durP2;ratioP2;P2;SDS_P1;SDS_P2;PMS_P1;PMS_P2;Temp;Humidity;BMP_temperature;BMP_pressure;BME280_temperature;BME280_humidity;BME280_pressure;Samples;Min_cycle;Max_cycle;Signal;HPM_P1;HPM_P2
2023/12/27 00:01:11;;;;;;;5.37;2.97;;;4.10;61.20;;;;;;5051173;28;20176;-74
2023/12/27 00:03:37;;;;;;;6.23;2.47;;;4.10;63.60;;;;;;5050631;28;20786;-71
2023/12/27 00:06:03;;;;;;;10.87;2.63;;;4.10;61.70;;;;;;5051669;28;20567;-72
2023/12/27 00:08:29;;;;;;;3.43;2.80;;;4.10;67.70;;;;;;5054249;28;20263;-71
2023/12/27 00:10:54;;;;;;;6.77;3.40;;;4.10;73.00;;;;;;5072213;28;20413;-72
2023/12/27 00:13:20;;;;;;;3.27;2.30;;;4.10;72.00;;;;;;5056786;28;20532;-71
2023/12/27 00:15:46;;;;;;;5.70;2.70;;;4.20;76.80;;;;;;5055346;28;20160;-71
2023/12/27 00:18:12;;;;;;;9.43;2.50;;;4.20;76.90;;;;;;5056254;28;20684;-73
2023/12/27 00:20:37;;;;;;;4.27;3.33;;;4.20;76.90;;;;;;5055860;28;20164;-73
2023/12/27 00:23:03;;;;;;;7.60;2.70;;;4.20;76.80;;;;;;5060895;28;20808;-72
2023/12/27 00:25:29;;;;;;;8.47;2.80;;;4.20;76.80;;;;;;5075236;28;20191;-71
2023/12/27 00:27:54;;;;;;;11.70;3.33;;;4.20;76.80;;;;;;5074789;28;20211;-73
2023/12/27 00:30:20;;;;;;;17.40;3.70;;;4.20;76.80;;;;;;5066718;28;20168;-73
2023/12/27 00:32:46;;;;;;;5.33;2.40;;;4.20;76.80;;;;;;5054567;28;20175;-71
2023/12/27 00:35:11;;;;;;;4.07;2.30;;;4.30;86.00;;;;;;5055178;28;20176;-71
2023/12/27 00:37:37;;;;;;;3.47;2.50;;;4.20;83.30;;;;;;5055644;28;20188;-72
2023/12/27 00:40:03;;;;;;;5.50;2.40;;;4.20;88.80;;;;;;5055174;28;20229;-72
2023/12/27 00:42:29;;;;;;;5.77;3.00;;;4.30;93.10;;;;;;5061570;28;20183;-73
2023/12/27 00:44:55;;;;;;;15.13;3.73;;;4.30;94.10;;;;;;5074843;28;20461;-74
2023/12/27 00:47:20;;;;;;;5.07;2.53;;;4.30;95.40;;;;;;5075225;28;20195;-74
2023/12/27 00:49:46;;;;;;;3.57;2.67;;;4.20;95.80;;;;;;5075496;28;20407;-71
2023/12/27 00:52:12;;;;;;;4.37;2.63;;;4.20;97.30;;;;;;5075043;28;20172;-71
2023/12/27 00:54:38;;;;;;;7.87;3.00;;;4.20;99.20;;;;;;5074760;28;20704;-73
2023/12/27 00:57:04;;;;;;;4.20;2.67;;;4.20;98.60;;;;;;5073553;28;20213;-72
2023/12/27 00:59:29;;;;;;;7.60;3.33;;;4.20;99.90;;;;;;5055490;28;20408;-73
2023/12/27 01:01:55;;;;;;;6.90;2.80;;;4.30;99.90;;;;;;5055117;28;20463;-73
2023/12/27 01:04:21;;;;;;;12.43;2.43;;;4.30;99.90;;;;;;5054334;28;20172;-72
2023/12/27 01:06:46;;;;;;;12.80;4.17;;;4.30;99.90;;;;;;5054267;28;20208;-72
2023/12/27 01:09:12;;;;;;;25.90;3.23;;;4.30;99.90;;;;;;5054130;28;20623;-73
2023/12/27 01:11:38;;;;;;;3.10;2.37;;;4.30;98.40;;;;;;5055170;28;20174;-72
2023/12/27 01:14:03;;;;;;;10.77;3.80;;;4.30;96.20;;;;;;5072908;28;20179;-71
2023/12/27 01:16:29;;;;;;;8.83;3.00;;;4.30;95.30;;;;;;5073936;28;20256;-73
2023/12/27 01:18:55;;;;;;;9.77;2.93;;;4.30;94.00;;;;;;5069793;28;20433;-71
2023/12/27 01:21:21;;;;;;;14.37;2.93;;;4.40;94.30;;;;;;5054460;28;20210;-72
2023/12/27 01:23:47;;;;;;;8.00;3.03;;;4.40;94.60;;;;;;5053820;28;20228;-72
2023/12/27 01:26:12;;;;;;;5.40;2.40;;;4.40;93.50;;;;;;5052584;28;20516;-73
2023/12/27 01:28:38;;;;;;;10.40;3.47;;;4.40;92.00;;;;;;5068395;28;20246;-72
2023/12/27 01:31:04;;;;;;;10.80;3.07;;;4.40;91.80;;;;;;5074765;28;20191;-71
2023/12/27 01:33:29;;;;;;;13.97;4.37;;;4.40;92.60;;;;;;5074909;28;20162;-71
2023/12/27 01:35:55;;;;;;;9.90;3.10;;;4.50;93.40;;;;;;5072339;28;20168;-71
2023/12/27 01:38:21;;;;;;;7.10;3.20;;;4.40;91.90;;;;;;5074533;28;20184;-71
2023/12/27 01:40:51;;;;;;;14.43;3.90;;;4.40;91.40;;;;;;5068750;28;20169;-72
2023/12/27 01:43:17;;;;;;;15.27;3.10;;;4.50;93.10;;;;;;5067416;28;20178;-71
2023/12/27 01:45:45;;;;;;;18.37;3.70;;;4.40;91.90;;;;;;5073452;28;20481;-71
2023/12/27 01:48:10;;;;;;;13.23;3.43;;;4.40;92.30;;;;;;5059148;28;20983;-72
2023/12/27 01:50:37;;;;;;;7.43;3.30;;;4.40;93.00;;;;;;5043279;28;20432;-73
2023/12/27 01:53:03;;;;;;;8.90;2.80;;;4.40;93.10;;;;;;5038458;28;20163;-72
2023/12/27 01:55:28;;;;;;;13.40;3.57;;;4.40;93.60;;;;;;5073608;28;20449;-73
2023/12/27 01:57:54;;;;;;;7.53;3.37;;;4.50;93.70;;;;;;5064147;28;20206;-73
2023/12/27 02:00:20;;;;;;;6.13;2.43;;;4.50;93.30;;;;;;5052817;28;20174;-73
2023/12/27 02:02:46;;;;;;;4.27;3.00;;;4.50;91.20;;;;;;5054355;28;20183;-71
2023/12/27 02:05:12;;;;;;;10.57;2.93;;;4.40;88.10;;;;;;5052026;28;20174;-71
2023/12/27 02:07:38;;;;;;;14.17;3.33;;;4.40;90.60;;;;;;5054026;28;20597;-73
2023/12/27 02:10:06;;;;;;;10.20;3.17;;;4.40;87.50;;;;;;5052781;28;20435;-73
2023/12/27 02:12:31;;;;;;;9.40;4.53;;;4.40;91.50;;;;;;5060505;28;20500;-73
2023/12/27 02:14:57;;;;;;;10.63;3.03;;;4.40;89.60;;;;;;5067762;28;20440;-73
2023/12/27 02:17:27;;;;;;;9.87;3.07;;;4.40;87.90;;;;;;5053541;28;20186;-72
2023/12/27 02:19:54;;;;;;;7.23;3.13;;;4.40;86.30;;;;;;5053975;28;20415;-71
2023/12/27 02:22:22;;;;;;;8.87;3.00;;;4.30;77.40;;;;;;5052890;28;20567;-71
2023/12/27 02:24:53;;;;;;;8.93;3.67;;;4.30;84.10;;;;;;5052803;28;20419;-73
2023/12/27 02:27:19;;;;;;;10.90;2.80;;;4.20;87.20;;;;;;5059471;28;20561;-71
2023/12/27 02:29:45;;;;;;;12.93;3.60;;;4.30;93.20;;;;;;5072358;28;20405;-71
2023/12/27 02:32:11;;;;;;;11.00;4.17;;;4.30;94.50;;;;;;5064967;28;20470;-72
2023/12/27 02:34:37;;;;;;;3.37;3.00;;;4.30;95.90;;;;;;5052637;28;20263;-74
2023/12/27 02:37:02;;;;;;;14.73;4.70;;;4.30;97.00;;;;;;5053246;28;20212;-72
2023/12/27 02:39:28;;;;;;;15.97;3.83;;;4.30;95.40;;;;;;5053786;28;20192;-70
2023/12/27 02:41:54;;;;;;;6.43;3.57;;;4.30;96.30;;;;;;5053248;28;20184;-73
2023/12/27 02:44:19;;;;;;;10.83;2.93;;;4.30;96.70;;;;;;5053229;28;20178;-70
2023/12/27 02:46:45;;;;;;;7.10;3.17;;;4.30;97.80;;;;;;5052463;28;20244;-71
2023/12/27 02:49:11;;;;;;;3.03;2.80;;;4.20;97.70;;;;;;5053242;28;20194;-73
2023/12/27 02:51:36;;;;;;;7.63;2.40;;;4.20;97.90;;;;;;5053116;28;20172;-74
2023/12/27 02:54:02;;;;;;;7.13;2.87;;;4.30;99.30;;;;;;5053364;28;20169;-72
2023/12/27 02:56:28;;;;;;;6.40;2.90;;;4.20;98.90;;;;;;5054864;28;20213;-73
2023/12/27 02:58:53;;;;;;;3.60;3.27;;;4.20;99.90;;;;;;5073135;28;20194;-74
2023/12/27 03:01:19;;;;;;;7.17;2.60;;;4.20;99.90;;;;;;5073153;28;20565;-72
2023/12/27 03:03:45;;;;;;;11.60;3.70;;;4.30;99.90;;;;;;5073115;28;20178;-73
2023/12/27 03:06:10;;;;;;;7.43;3.20;;;4.30;99.90;;;;;;5071214;28;20285;-71
2023/12/27 03:08:37;;;;;;;22.30;3.50;;;4.30;99.90;;;;;;5073097;28;20189;-72
2023/12/27 03:11:03;;;;;;;16.93;3.30;;;4.30;99.90;;;;;;5072119;28;20664;-73
2023/12/27 03:13:29;;;;;;;9.30;2.80;;;4.30;99.60;;;;;;5071664;28;20728;-73
2023/12/27 03:15:54;;;;;;;11.50;3.10;;;4.20;96.10;;;;;;5070970;28;20422;-73
2023/12/27 03:18:20;;;;;;;9.23;3.07;;;4.20;95.50;;;;;;5073013;28;20190;-70
2023/12/27 03:20:45;;;;;;;7.97;3.37;;;4.20;94.90;;;;;;5072959;28;20163;-73
2023/12/27 03:23:12;;;;;;;12.53;4.13;;;4.20;93.50;;;;;;5072847;28;20180;-74
2023/12/27 03:25:37;;;;;;;13.13;3.47;;;4.20;93.10;;;;;;5071048;28;20192;-72
2023/12/27 03:28:03;;;;;;;8.40;2.63;;;4.20;90.90;;;;;;5069882;28;21196;-73
2023/12/27 03:30:29;;;;;;;10.33;3.13;;;4.20;90.70;;;;;;5072690;28;20538;-71
2023/12/27 03:32:54;;;;;;;6.10;3.10;;;4.20;86.80;;;;;;5071532;28;20170;-71
2023/12/27 03:35:20;;;;;;;9.17;3.43;;;4.10;80.40;;;;;;5071838;28;20166;-73
2023/12/27 03:37:46;;;;;;;12.57;3.13;;;4.00;76.60;;;;;;5067316;28;20213;-71
2023/12/27 03:40:12;;;;;;;15.63;3.90;;;4.10;76.80;;;;;;5052415;28;20178;-71
2023/12/27 03:42:37;;;;;;;8.53;2.87;;;4.10;78.20;;;;;;5051391;28;20642;-73
2023/12/27 03:45:03;;;;;;;16.57;3.30;;;4.10;82.90;;;;;;5055504;28;20412;-72
2023/12/27 03:47:29;;;;;;;4.03;2.97;;;4.10;81.00;;;;;;5056583;28;20254;-73
2023/12/27 03:49:55;;;;;;;6.90;3.20;;;4.10;91.80;;;;;;5050246;28;20981;-70
2023/12/27 03:52:20;;;;;;;11.73;3.70;;;4.10;92.80;;;;;;5039489;28;20497;-70
2023/12/27 03:54:46;;;;;;;6.27;2.63;;;4.00;93.60;;;;;;5055715;28;20532;-72
2023/12/27 03:57:12;;;;;;;6.10;3.20;;;4.10;95.50;;;;;;5056344;28;20190;-71
2023/12/27 03:59:40;;;;;;;14.97;4.47;;;4.00;94.70;;;;;;5056451;28;20261;-73
2023/12/27 04:02:07;;;;;;;8.73;3.43;;;4.00;94.90;;;;;;5056175;28;20171;-72
2023/12/27 04:04:33;;;;;;;6.63;2.87;;;4.00;95.20;;;;;;5054362;28;20866;-72
2023/12/27 04:06:59;;;;;;;12.70;2.97;;;4.00;96.20;;;;;;5056212;28;20448;-73
2023/12/27 04:09:25;;;;;;;14.97;2.93;;;4.00;97.90;;;;;;5054987;28;20415;-71
2023/12/27 04:11:51;;;;;;;6.93;3.10;;;4.00;97.00;;;;;;5056228;28;20589;-72
2023/12/27 04:14:17;;;;;;;18.43;4.10;;;4.00;99.90;;;;;;5073496;28;20169;-73
2023/12/27 04:16:43;;;;;;;8.13;3.53;;;4.10;99.90;;;;;;5074455;28;20411;-71
2023/12/27 04:19:09;;;;;;;9.13;3.10;;;4.10;99.90;;;;;;5075778;28;20454;-71
2023/12/27 04:21:35;;;;;;;9.80;2.63;;;4.10;99.90;;;;;;5076036;28;20867;-71
2023/12/27 04:24:01;;;;;;;13.77;3.27;;;4.10;99.90;;;;;;5076283;28;20617;-73
2023/12/27 04:26:26;;;;;;;11.27;2.90;;;4.10;99.90;;;;;;5073782;28;20224;-73
2023/12/27 04:28:52;;;;;;;5.87;3.10;;;4.10;99.90;;;;;;5073626;28;20190;-71
2023/12/27 04:31:17;;;;;;;12.03;3.17;;;4.10;99.90;;;;;;5075960;28;20162;-73
2023/12/27 04:33:43;;;;;;;11.30;3.00;;;4.10;99.90;;;;;;5075953;28;20161;-71
2023/12/27 04:36:09;;;;;;;20.50;3.87;;;4.10;99.90;;;;;;5074506;28;20169;-73
2023/12/27 04:38:35;;;;;;;6.07;3.40;;;4.10;99.90;;;;;;5073217;28;20182;-73
2023/12/27 04:41:07;;;;;;;13.13;3.23;;;4.20;99.90;;;;;;5055804;28;20166;-73
2023/12/27 04:43:33;;;;;;;10.93;3.20;;;4.10;99.90;;;;;;5066342;28;20804;-73
2023/12/27 04:45:58;;;;;;;10.73;3.73;;;4.20;99.90;;;;;;5074863;28;20375;-73
2023/12/27 04:48:24;;;;;;;10.90;3.60;;;4.20;99.90;;;;;;5075478;28;20268;-72
2023/12/27 04:50:50;;;;;;;6.37;2.70;;;4.20;99.90;;;;;;5075588;28;20168;-71
2023/12/27 04:53:15;;;;;;;6.57;3.60;;;4.20;99.90;;;;;;5075555;28;20172;-71
2023/12/27 04:55:41;;;;;;;7.40;3.20;;;4.20;99.90;;;;;;5073201;28;20165;-73
2023/12/27 04:58:07;;;;;;;8.47;2.77;;;4.20;99.90;;;;;;5074357;28;20201;-71
2023/12/27 05:00:32;;;;;;;10.93;2.87;;;4.20;99.90;;;;;;5075396;28;20170;-72
2023/12/27 05:02:59;;;;;;;5.20;2.63;;;4.20;99.90;;;;;;5075194;28;20506;-71
2023/12/27 05:05:24;;;;;;;7.10;3.17;;;4.10;99.90;;;;;;5074500;28;20197;-71
2023/12/27 05:07:50;;;;;;;9.10;3.00;;;4.10;99.90;;;;;;5062296;28;20544;-72
2023/12/27 05:10:16;;;;;;;11.40;3.10;;;4.10;99.90;;;;;;5055237;28;20169;-71
2023/12/27 05:12:41;;;;;;;13.30;2.97;;;4.10;99.90;;;;;;5055171;28;20190;-72
2023/12/27 05:15:07;;;;;;;4.17;2.93;;;4.00;99.90;;;;;;5053929;28;20196;-73
2023/12/27 05:17:33;;;;;;;10.70;3.33;;;3.90;99.00;;;;;;5055163;28;20193;-71
2023/12/27 05:19:59;;;;;;;12.23;3.90;;;3.90;98.80;;;;;;5054732;28;20401;-70
2023/12/27 05:22:26;;;;;;;6.83;2.60;;;3.90;97.10;;;;;;5053731;28;20183;-71
2023/12/27 05:24:52;;;;;;;7.63;2.50;;;3.80;93.50;;;;;;5054016;28;20163;-73
2023/12/27 05:27:18;;;;;;;3.50;2.93;;;3.80;90.10;;;;;;5054590;28;20510;-74
2023/12/27 05:29:43;;;;;;;11.30;3.03;;;3.70;80.80;;;;;;5055002;28;20757;-73
2023/12/27 05:32:11;;;;;;;8.87;3.63;;;3.60;76.30;;;;;;5054762;28;20170;-73
2023/12/27 05:34:37;;;;;;;3.33;2.90;;;3.60;76.30;;;;;;5054059;28;20922;-71
2023/12/27 05:37:02;;;;;;;6.17;2.60;;;3.60;76.30;;;;;;5074242;28;20936;-73
2023/12/27 05:39:28;;;;;;;13.90;3.40;;;3.60;76.30;;;;;;5074903;28;20407;-73
2023/12/27 05:41:54;;;;;;;8.13;3.47;;;3.60;73.50;;;;;;5072606;28;20177;-72
2023/12/27 05:44:19;;;;;;;9.87;3.30;;;3.50;76.20;;;;;;5064863;28;20263;-71
2023/12/27 05:46:45;;;;;;;5.03;3.60;;;3.50;76.30;;;;;;5033732;28;20196;-71
2023/12/27 05:49:11;;;;;;;10.73;4.20;;;3.60;76.30;;;;;;5046063;28;20267;-71
2023/12/27 05:51:36;;;;;;;12.03;3.13;;;3.60;76.30;;;;;;5054038;28;20164;-73
2023/12/27 05:54:02;;;;;;;9.77;3.10;;;3.70;85.60;;;;;;5054274;28;20172;-73
2023/12/27 05:56:28;;;;;;;4.70;3.13;;;3.70;92.00;;;;;;5070475;28;20531;-72
2023/12/27 05:58:54;;;;;;;7.70;2.80;;;3.80;95.30;;;;;;5073339;28;20431;-70
2023/12/27 06:01:19;;;;;;;11.13;3.53;;;3.90;99.90;;;;;;5073393;28;20174;-72
2023/12/27 06:03:46;;;;;;;8.63;3.80;;;3.90;99.90;;;;;;5062616;28;20192;-71
2023/12/27 06:06:12;;;;;;;14.33;3.13;;;3.90;99.90;;;;;;5051321;28;20192;-71
2023/12/27 06:08:38;;;;;;;6.23;2.80;;;3.90;99.90;;;;;;5051824;28;20440;-72
2023/12/27 06:11:03;;;;;;;4.03;3.50;;;3.90;99.90;;;;;;5054123;28;20987;-74
2023/12/27 06:13:29;;;;;;;8.50;3.40;;;3.90;99.90;;;;;;5064865;28;20191;-74
2023/12/27 06:15:55;;;;;;;14.77;3.23;;;3.90;99.90;;;;;;5071882;28;20206;-72
2023/12/27 06:18:21;;;;;;;8.50;3.00;;;3.80;99.90;;;;;;5073718;28;20785;-73
2023/12/27 06:20:47;;;;;;;8.43;3.10;;;3.80;99.90;;;;;;5073838;28;20166;-72
2023/12/27 06:23:12;;;;;;;11.90;2.87;;;3.80;97.70;;;;;;5072617;28;20409;-71
2023/12/27 06:25:38;;;;;;;14.27;3.70;;;3.70;94.80;;;;;;5072739;28;20183;-73
2023/12/27 06:28:04;;;;;;;5.57;2.77;;;3.60;92.00;;;;;;5072301;28;20617;-74
2023/12/27 06:30:30;;;;;;;10.70;3.17;;;3.50;87.40;;;;;;5073200;28;20215;-74
2023/12/27 06:32:55;;;;;;;8.23;3.30;;;3.40;76.90;;;;;;5069233;28;20442;-72
2023/12/27 06:35:21;;;;;;;5.57;2.90;;;3.40;76.10;;;;;;5062059;28;20177;-73
2023/12/27 06:37:47;;;;;;;6.87;3.70;;;3.30;76.10;;;;;;5072239;28;20190;-73
2023/12/27 06:40:13;;;;;;;8.60;3.57;;;3.20;70.60;;;;;;5073562;28;20645;-74
2023/12/27 06:42:38;;;;;;;4.03;3.00;;;3.20;71.70;;;;;;5072409;28;20631;-74
2023/12/27 06:45:05;;;;;;;5.90;3.23;;;3.20;68.80;;;;;;5072161;28;20184;-73
2023/12/27 06:47:30;;;;;;;8.47;3.50;;;3.20;66.30;;;;;;5072745;28;20192;-75
2023/12/27 06:49:56;;;;;;;10.17;4.70;;;3.10;62.50;;;;;;5073152;28;20719;-74
2023/12/27 06:52:22;;;;;;;8.90;3.70;;;3.10;57.30;;;;;;5073327;28;20173;-73
2023/12/27 06:54:47;;;;;;;10.07;4.00;;;3.00;50.80;;;;;;5072316;28;20163;-71
2023/12/27 06:57:13;;;;;;;12.93;3.87;;;3.00;49.20;;;;;;5069393;28;20672;-74
2023/12/27 06:59:39;;;;;;;6.87;4.20;;;3.00;48.40;;;;;;5053222;28;20176;-71
2023/12/27 07:02:07;;;;;;;11.60;4.10;;;3.00;48.70;;;;;;5053062;28;20179;-72
2023/12/27 07:04:33;;;;;;;9.87;3.83;;;2.90;48.10;;;;;;5051806;28;20192;-72
2023/12/27 07:06:59;;;;;;;18.87;5.33;;;3.00;52.90;;;;;;5052630;28;20970;-74
2023/12/27 07:09:24;;;;;;;5.13;3.50;;;3.10;62.90;;;;;;5053150;28;20170;-73
2023/12/27 07:11:50;;;;;;;11.90;3.90;;;3.10;71.10;;;;;;5067952;28;20172;-71
2023/12/27 07:14:16;;;;;;;8.33;3.43;;;3.10;76.00;;;;;;5055607;28;20217;-72
2023/12/27 07:16:42;;;;;;;11.63;4.77;;;3.10;77.50;;;;;;5052198;28;20720;-75
2023/12/27 07:19:08;;;;;;;7.20;4.10;;;3.10;80.50;;;;;;5050911;28;20530;-71
2023/12/27 07:21:33;;;;;;;11.07;4.20;;;3.10;88.00;;;;;;5052587;28;20179;-71
2023/12/27 07:23:59;;;;;;;4.33;3.40;;;3.10;90.80;;;;;;5052608;28;20259;-71
2023/12/27 07:26:25;;;;;;;8.50;3.20;;;3.10;94.90;;;;;;5051849;28;20202;-71
2023/12/27 07:28:50;;;;;;;6.87;2.97;;;3.10;97.20;;;;;;5053327;28;20199;-71
2023/12/27 07:31:16;;;;;;;5.70;3.13;;;3.20;99.80;;;;;;5052598;28;20167;-72
2023/12/27 07:33:42;;;;;;;5.77;4.63;;;3.10;99.90;;;;;;5052672;28;20179;-73
2023/12/27 07:36:08;;;;;;;4.77;3.83;;;3.10;99.90;;;;;;5052072;28;20303;-71
2023/12/27 07:38:34;;;;;;;7.30;3.87;;;3.10;99.90;;;;;;5044211;28;20188;-74
2023/12/27 07:41:00;;;;;;;8.90;3.33;;;3.10;99.90;;;;;;5050631;28;20410;-71
2023/12/27 07:43:25;;;;;;;5.53;2.47;;;3.20;99.90;;;;;;5053216;28;20449;-71
2023/12/27 07:45:51;;;;;;;13.10;3.73;;;3.10;99.90;;;;;;5051808;28;20172;-73
2023/12/27 07:48:17;;;;;;;8.43;3.20;;;3.10;99.90;;;;;;5052026;28;20205;-74
2023/12/27 07:50:43;;;;;;;15.80;4.90;;;3.10;99.90;;;;;;5052439;28;20172;-71
2023/12/27 07:53:09;;;;;;;6.40;3.73;;;3.10;99.90;;;;;;5052542;28;20219;-71
2023/12/27 07:55:35;;;;;;;14.43;4.53;;;3.10;99.90;;;;;;5051726;28;20397;-71
2023/12/27 07:58:00;;;;;;;8.20;3.97;;;3.10;99.90;;;;;;5053167;28;20672;-71
2023/12/27 08:00:26;;;;;;;5.33;3.93;;;3.10;99.90;;;;;;5051765;28;20510;-74
2023/12/27 08:02:53;;;;;;;7.90;3.50;;;3.10;99.90;;;;;;5052515;28;20157;-74
2023/12/27 08:05:18;;;;;;;8.57;3.97;;;3.10;99.90;;;;;;5051621;28;20977;-74
2023/12/27 08:07:45;;;;;;;6.50;3.77;;;3.10;99.90;;;;;;5052020;28;20528;-71
2023/12/27 08:10:10;;;;;;;5.80;3.30;;;3.10;99.90;;;;;;5052056;28;20172;-70
2023/12/27 08:12:36;;;;;;;7.13;3.83;;;3.10;99.90;;;;;;5053067;28;20397;-71
2023/12/27 08:15:02;;;;;;;9.13;3.90;;;3.10;99.90;;;;;;5051362;28;20893;-73
2023/12/27 08:17:28;;;;;;;6.37;3.73;;;3.10;99.90;;;;;;5051897;28;20240;-70
2023/12/27 08:19:54;;;;;;;6.43;4.60;;;3.00;99.90;;;;;;5051894;28;20400;-71
2023/12/27 08:22:20;;;;;;;10.80;5.90;;;3.00;99.90;;;;;;5050991;28;20175;-74
2023/12/27 08:24:46;;;;;;;11.33;4.00;;;3.00;99.90;;;;;;5051553;28;20171;-74
2023/12/27 08:27:12;;;;;;;6.97;4.93;;;3.10;99.90;;;;;;5051713;28;20524;-71
2023/12/27 08:29:38;;;;;;;7.73;5.20;;;3.00;99.90;;;;;;5074090;28;20414;-74
2023/12/27 08:32:04;;;;;;;8.50;5.97;;;3.00;99.90;;;;;;5076161;28;20298;-72
2023/12/27 08:34:30;;;;;;;15.00;5.40;;;3.10;99.90;;;;;;5075660;28;20484;-74
2023/12/27 08:36:55;;;;;;;11.53;5.60;;;3.10;99.90;;;;;;5073944;28;20491;-71
2023/12/27 08:39:21;;;;;;;10.43;5.83;;;3.20;99.90;;;;;;5074274;28;20181;-74
2023/12/27 08:41:47;;;;;;;13.13;7.30;;;3.20;99.90;;;;;;5074685;28;20204;-74
2023/12/27 08:44:12;;;;;;;12.83;6.53;;;3.20;99.90;;;;;;5074793;28;20176;-73
2023/12/27 08:46:39;;;;;;;14.90;7.20;;;3.30;99.90;;;;;;5056961;28;20536;-73
2023/12/27 08:49:05;;;;;;;17.03;6.50;;;3.30;99.90;;;;;;5055591;28;20715;-73
2023/12/27 08:51:30;;;;;;;12.43;7.20;;;3.30;99.90;;;;;;5055707;28;20482;-74
2023/12/27 08:53:56;;;;;;;10.83;7.53;;;3.30;99.90;;;;;;5054359;28;20411;-74
2023/12/27 08:56:22;;;;;;;11.20;7.40;;;3.30;99.90;;;;;;5053987;28;20168;-74
2023/12/27 08:58:48;;;;;;;12.57;7.50;;;3.40;99.90;;;;;;5068769;28;20281;-73
2023/12/27 09:01:13;;;;;;;11.73;6.87;;;3.40;99.90;;;;;;5075493;28;20162;-72
2023/12/27 09:03:40;;;;;;;15.30;7.93;;;3.40;99.90;;;;;;5075371;28;20170;-72
2023/12/27 09:06:07;;;;;;;8.63;7.20;;;3.30;99.90;;;;;;5074489;28;20256;-71
2023/12/27 09:08:36;;;;;;;14.50;7.83;;;3.30;99.90;;;;;;5074016;28;20442;-71
2023/12/27 09:11:03;;;;;;;10.97;7.60;;;3.40;99.90;;;;;;5075196;28;20433;-74
2023/12/27 09:13:28;;;;;;;9.13;6.37;;;3.40;99.90;;;;;;5061741;28;20408;-71
2023/12/27 09:15:54;;;;;;;8.67;7.20;;;3.40;99.90;;;;;;5054290;28;20416;-71
2023/12/27 09:18:20;;;;;;;11.10;7.60;;;3.50;99.90;;;;;;5054675;28;20231;-71
2023/12/27 09:20:45;;;;;;;9.17;7.33;;;3.50;99.90;;;;;;5055265;28;20172;-74
2023/12/27 09:23:11;;;;;;;11.20;8.17;;;3.60;99.90;;;;;;5054915;28;20176;-76
2023/12/27 09:25:37;;;;;;;11.40;8.40;;;3.60;99.90;;;;;;5052446;28;20200;-73
2023/12/27 09:28:03;;;;;;;9.23;7.10;;;3.50;99.90;;;;;;5055284;28;20209;-74
2023/12/27 09:30:29;;;;;;;12.30;7.07;;;3.60;99.90;;;;;;5054072;28;20197;-71
2023/12/27 09:32:55;;;;;;;9.80;7.40;;;3.60;99.90;;;;;;5054876;28;20883;-75
2023/12/27 09:35:20;;;;;;;15.43;8.30;;;3.70;99.90;;;;;;5053956;28;20167;-75
2023/12/27 09:37:46;;;;;;;11.10;8.60;;;3.70;99.90;;;;;;5070192;28;20443;-72
2023/12/27 09:40:12;;;;;;;16.10;8.97;;;3.80;99.90;;;;;;5051835;28;20193;-71
2023/12/27 09:42:40;;;;;;;13.43;9.13;;;3.90;99.90;;;;;;5043875;28;20185;-72
2023/12/27 09:45:08;;;;;;;12.60;8.20;;;3.90;99.90;;;;;;5053748;28;20416;-71
2023/12/27 09:47:35;;;;;;;19.50;9.40;;;4.00;99.90;;;;;;5054133;28;20470;-75
2023/12/27 09:50:02;;;;;;;13.80;7.87;;;3.90;99.90;;;;;;5054375;28;20412;-71
2023/12/27 09:52:30;;;;;;;11.07;7.33;;;4.00;99.90;;;;;;5053451;28;20405;-71
2023/12/27 09:54:56;;;;;;;12.40;7.83;;;4.00;99.90;;;;;;5053526;28;20408;-73
2023/12/27 09:57:22;;;;;;;12.93;7.67;;;4.10;99.90;;;;;;5062639;28;20492;-75
2023/12/27 09:59:51;;;;;;;12.07;8.10;;;4.20;99.90;;;;;;5057364;28;20171;-75
2023/12/27 10:02:19;;;;;;;14.47;9.23;;;4.20;99.90;;;;;;5054215;28;20448;-75
2023/12/27 10:05:21;;;;;;;13.47;9.20;;;4.30;99.90;;;;;;5053164;28;20412;-75
2023/12/27 10:07:47;;;;;;;17.47;9.10;;;4.30;99.90;;;;;;5043723;28;21070;-72
2023/12/27 10:10:13;;;;;;;16.53;7.60;;;4.40;99.90;;;;;;5054064;28;20413;-71
2023/12/27 10:12:42;;;;;;;12.10;8.10;;;4.40;99.90;;;;;;5053813;28;20406;-72
2023/12/27 10:15:08;;;;;;;16.90;7.43;;;4.40;99.90;;;;;;5053322;28;20198;-71
2023/12/27 10:17:33;;;;;;;13.30;7.67;;;4.50;99.90;;;;;;5054076;28;20429;-71
2023/12/27 10:19:59;;;;;;;18.33;8.23;;;4.50;99.90;;;;;;5052994;28;20955;-75
2023/12/27 10:22:27;;;;;;;12.23;8.90;;;4.50;99.90;;;;;;5053335;28;20175;-71
2023/12/27 10:24:53;;;;;;;16.43;7.30;;;4.50;99.90;;;;;;5052845;28;20181;-72
2023/12/27 10:27:20;;;;;;;11.20;7.93;;;4.50;99.90;;;;;;5051934;28;20468;-74
2023/12/27 10:29:49;;;;;;;12.60;7.30;;;4.50;99.90;;;;;;5053931;28;20450;-75
2023/12/27 10:32:19;;;;;;;14.87;7.70;;;4.40;99.90;;;;;;5053515;28;20971;-72
2023/12/27 10:34:46;;;;;;;9.60;6.90;;;4.50;99.90;;;;;;5052936;28;20412;-75
2023/12/27 10:37:12;;;;;;;14.40;7.47;;;4.50;99.90;;;;;;5053249;28;20413;-71
2023/12/27 10:39:45;;;;;;;12.40;8.43;;;4.50;99.90;;;;;;5053519;28;20424;-75
2023/12/27 10:42:17;;;;;;;9.80;7.40;;;4.60;99.90;;;;;;5053916;28;20415;-72
2023/12/27 10:44:46;;;;;;;11.13;7.10;;;4.70;99.90;;;;;;5072770;28;20426;-75
2023/12/27 10:47:17;;;;;;;12.67;7.87;;;4.60;99.90;;;;;;5072935;28;20464;-71
2023/12/27 10:49:46;;;;;;;9.30;8.30;;;4.50;99.90;;;;;;5057462;28;20412;-73
2023/12/27 10:52:12;;;;;;;13.10;7.40;;;4.50;99.90;;;;;;5051306;28;20971;-73
2023/12/27 10:54:42;;;;;;;10.27;6.53;;;4.50;99.90;;;;;;5051109;28;20406;-72
2023/12/27 10:57:19;;;;;;;8.37;6.07;;;4.60;99.90;;;;;;5052266;28;20906;-73
2023/12/27 10:59:47;;;;;;;9.57;6.43;;;4.60;99.90;;;;;;5053048;28;20762;-72
2023/12/27 11:02:13;;;;;;;18.33;6.33;;;4.60;99.90;;;;;;5052829;28;20493;-74
2023/12/27 11:04:42;;;;;;;9.50;5.83;;;4.60;99.90;;;;;;5052033;28;20432;-73
2023/12/27 11:07:09;;;;;;;8.13;5.63;;;4.70;99.90;;;;;;5053078;28;20752;-73
2023/12/27 11:09:38;;;;;;;15.37;5.97;;;4.60;99.90;;;;;;5051708;28;20409;-74
2023/12/27 11:12:07;;;;;;;9.50;6.10;;;4.70;99.90;;;;;;5051658;28;20917;-71
2023/12/27 11:14:35;;;;;;;12.23;6.43;;;4.70;99.90;;;;;;5072070;28;20407;-71
2023/12/27 11:17:03;;;;;;;10.63;5.87;;;4.80;99.90;;;;;;5062848;28;20413;-73
2023/12/27 11:19:31;;;;;;;13.10;5.70;;;4.80;99.90;;;;;;5052508;28;20459;-72
2023/12/27 11:21:57;;;;;;;10.47;5.30;;;4.80;99.90;;;;;;5051571;28;20417;-75
2023/12/27 11:24:23;;;;;;;7.27;4.83;;;4.80;99.90;;;;;;5052695;28;20935;-75
2023/12/27 11:26:59;;;;;;;7.20;4.57;;;4.80;99.90;;;;;;5050501;28;20610;-75
2023/12/27 11:29:27;;;;;;;13.20;5.70;;;4.80;99.90;;;;;;5071483;28;20272;-71
2023/12/27 11:31:53;;;;;;;14.87;6.00;;;4.80;99.90;;;;;;5070670;28;20473;-72
2023/12/27 11:34:20;;;;;;;7.77;5.07;;;4.80;99.90;;;;;;5033686;28;20418;-71
2023/12/27 11:36:51;;;;;;;9.80;5.73;;;4.90;99.90;;;;;;5030548;28;20410;-74
2023/12/27 11:39:20;;;;;;;7.00;4.97;;;5.10;99.90;;;;;;5032527;28;20882;-73
2023/12/27 11:41:47;;;;;;;12.17;5.63;;;5.00;99.90;;;;;;5036486;28;20406;-70
2023/12/27 11:44:17;;;;;;;18.73;6.27;;;5.10;99.90;;;;;;5071790;28;20519;-73
2023/12/27 11:46:43;;;;;;;6.77;5.10;;;5.10;99.90;;;;;;5071674;28;20459;-71
2023/12/27 11:49:17;;;;;;;9.70;5.67;;;5.10;99.90;;;;;;5062703;28;20428;-72
2023/12/27 11:51:42;;;;;;;9.20;5.93;;;5.10;99.90;;;;;;5052660;28;20417;-72
2023/12/27 11:54:19;;;;;;;16.67;5.83;;;5.10;99.90;;;;;;5050684;28;20413;-71
2023/12/27 11:56:45;;;;;;;17.47;6.17;;;5.10;99.90;;;;;;5051398;28;20628;-74
2023/12/27 11:59:11;;;;;;;12.73;5.00;;;5.10;97.50;;;;;;5071829;28;20415;-71
2023/12/27 12:01:39;;;;;;;16.63;7.53;;;5.10;95.30;;;;;;5072448;28;20404;-73
2023/12/27 12:04:43;;;;;;;13.07;11.77;;;5.20;96.80;;;;;;5073975;28;20174;-72
2023/12/27 12:07:19;;;;;;;10.10;6.87;;;5.30;95.60;;;;;;5076199;28;20455;-71
2023/12/27 12:09:46;;;;;;;9.27;4.83;;;5.30;91.30;;;;;;5075080;28;20408;-71
2023/12/27 12:12:19;;;;;;;15.13;5.53;;;5.30;78.40;;;;;;5075494;28;20400;-72
2023/12/27 12:14:45;;;;;;;12.47;4.93;;;5.30;77.60;;;;;;5075447;28;20408;-73
2023/12/27 12:17:13;;;;;;;17.97;8.70;;;5.30;75.10;;;;;;5075685;28;20421;-73
2023/12/27 12:19:39;;;;;;;16.30;6.57;;;5.30;70.60;;;;;;5075498;28;20493;-73
2023/12/27 12:22:05;;;;;;;10.50;7.20;;;5.40;73.20;;;;;;5076331;28;20412;-73
2023/12/27 12:24:34;;;;;;;18.73;6.70;;;5.40;68.10;;;;;;5075369;28;20385;-74
2023/12/27 12:27:01;;;;;;;8.50;5.63;;;5.40;65.40;;;;;;5074748;28;20436;-72
2023/12/27 12:29:27;;;;;;;10.87;5.73;;;5.40;60.50;;;;;;5075754;28;20399;-72
2023/12/27 12:31:54;;;;;;;9.40;5.97;;;5.40;57.40;;;;;;5076106;28;21009;-71
2023/12/27 12:34:23;;;;;;;16.03;6.20;;;5.40;56.60;;;;;;5075893;28;20889;-71
2023/12/27 12:36:50;;;;;;;18.20;9.40;;;5.30;43.70;;;;;;5075180;28;20389;-71
2023/12/27 12:39:16;;;;;;;9.00;6.13;;;5.30;29.10;;;;;;5065288;28;20866;-71
2023/12/27 12:41:43;;;;;;;8.43;7.33;;;5.30;29.60;;;;;;5056592;28;20441;-72
2023/12/27 12:44:10;;;;;;;15.73;7.30;;;5.30;28.80;;;;;;5075765;28;20469;-74
2023/12/27 12:46:36;;;;;;;13.80;7.00;;;5.30;28.80;;;;;;5034516;28;20490;-71
2023/12/27 12:49:06;;;;;;;7.90;6.30;;;5.30;28.80;;;;;;5034644;28;20794;-72